Nearby METAR Reports

 

YMER - Merimbula Arpt, Australia
Distance from station: SE 12km
Updated: 31/07/2021 09:00
Clear
Clear
 Wind from WSW
Wind: WSW 4 km/h
Temperature: 9°C
Dew Point: 6°C
Humidity: 82%
Barometer: 1011 hPa
Clouds: Clear
Visibility: 10 km
2021/07/30 23:00 YMER 302300Z AUTO 25002KT 9999 // NCD 09/06 Q1011
YCOM - Cooma Snowy Mtns, Australia
Distance from station: NW 96km
Updated: 31/07/2021 09:00
Partly cloudy
Partly cloudy
 Wind from NE
Wind: NE 28 km/h
Temperature: 7°C
Wind Chill: 3°C
Dew Point: -1°C
Humidity: 57%
Barometer: 1011 hPa
Clouds: Partly cloudy
Visibility: 10 km
Cloud details: Partly cloudy 1494 m
Partly cloudy 1798 m
2021/07/30 23:00 YCOM 302300Z AUTO 05015KT 9999 // SCT049 SCT059 07/M01 Q1011
 
YSCB - Canberra (civ/Mi, Australia
Distance from station: NNW 182km
Updated: 31/07/2021 09:30
Light rain, Mostly cloudy
Light rain, Mostly cloudy
 Wind from S
Wind: S 9 km/h
Temperature: 8°C
Wind Chill: 6°C
Dew Point: 3°C
Humidity: 71%
Barometer: 1014 hPa
Summary: Light rain
Clouds: Mostly cloudy
Visibility: 10 km
Cloud details: Partly cloudy 1646 m
Mostly cloudy 2012 m
Mostly cloudy 2316 m
2021/07/30 23:30 YSCB 302330Z AUTO 19005KT 9999 -RA SCT054 BKN066 BKN076 08/03 Q1014
YSNW - Nowra (aus-Navy), Australia
Distance from station: NNE 219km
Updated: 31/07/2021 09:00
Clear
Clear
 Wind from NW
Wind: NW 13 km/h
Temperature: 14°C
Dew Point: -1°C
Humidity: 36%
Barometer: 1013 hPa
Clouds: Clear
Visibility: 10 km
2021/07/30 23:00 YSNW 302300Z AUTO 31007KT 9999 // NCD 14/M01 Q1013
 
YMAY - Albury Airport, Australia
Distance from station: WNW 271km
Updated: 31/07/2021 09:00
Partly cloudy
Partly cloudy
 Wind from SE
Wind: SE 7 km/h
Temperature: 9°C
Wind Chill: 8°C
Dew Point: 9°C
Humidity: 100%
Barometer: 1011 hPa
Clouds: Partly cloudy
Visibility: 10 km
Cloud details: Partly cloudy 2774 m
2021/07/30 23:00 YMAY 302300Z AUTO 13004KT 9999 // SCT091 09/09 Q1011
YSWG - Wagga Wagga(Cv/M, Australia
Distance from station: NW 283km
Updated: 31/07/2021 09:00
Overcast
Overcast
 Wind from E
Wind: E 15 km/h
Temperature: 11°C
Dew Point: 5°C
Humidity: 67%
Barometer: 1012 hPa
Clouds: Overcast
Visibility: 10 km
Cloud details: Overcast 2713 m
2021/07/30 23:00 YSWG 302300Z AUTO 09008KT 9999 // OVC089 11/05 Q1012
 
YWGT - Wangaratta Arp, Australia
Distance from station: W 317km
Updated: 31/07/2021 09:00
Mostly cloudy
Mostly cloudy
 Wind from SSE
Wind: SSE 7 km/h
Temperature: 10°C
Wind Chill: 9°C
Dew Point: 9°C
Humidity: 94%
Barometer: 1010 hPa
Clouds: Mostly cloudy
Visibility: 10 km
Cloud details: Mostly cloudy 3658 m
2021/07/30 23:00 YWGT 302300Z AUTO 15004KT 9999 // BKN120 10/09 Q1010
YSSY - Sydney Intl Airp, Australia
Distance from station: NNE 343km
Updated: 31/07/2021 09:30
Clear
Clear
 Wind from NW
Wind: NW 9 km/h
Temperature: 17°C
Dew Point: 3°C
Humidity: 39%
Barometer: 1014 hPa
Summary: Clear
Visibility: greater than 10 km
2021/07/30 23:30 YSSY 302330Z 32005KT CAVOK 17/03 Q1014